Time,TemperatureF,DewpointF,PressureIn,WindDirection,WindDirectionDegrees,WindSpeedMPH,WindSpeedGustMPH,Humidity,HourlyPrecipIn,Conditions,Clouds,dailyrainin,SoftwareType,DateUTC
2014-09-30 00:02:00,50.5,45.2,29.98,SSW,206,0.0,1.0,82,0.00,,---,0.00,VWS V14.01,2014-09-30 07:02:00,
2014-09-30 00:12:00,50.5,45.2,29.95,SSW,207,0.0,1.0,82,0.00,,---,0.00,VWS V14.01,2014-09-30 07:12:00,
2014-09-30 00:22:00,50.6,45.3,29.95,SSW,207,0.0,1.0,82,0.00,,---,0.00,VWS V14.01,2014-09-30 07:22:00,
2014-09-30 00:32:00,50.7,45.4,29.94,North,360,0.0,0.0,82,0.00,,---,0.00,VWS V14.01,2014-09-30 07:32:00,
2014-09-30 00:42:00,50.9,45.6,29.95,SSW,207,0.0,0.0,82,0.00,,---,0.00,VWS V14.01,2014-09-30 07:42:00,
2014-09-30 00:52:00,51.0,45.4,29.95,SSW,206,0.0,0.0,81,0.00,,---,0.00,VWS V14.01,2014-09-30 07:52:00,
2014-09-30 01:02:00,51.2,45.9,29.95,North,360,0.0,0.0,82,0.00,,---,0.00,VWS V14.01,2014-09-30 08:02:00,
2014-09-30 01:12:00,51.2,45.6,29.93,SSW,207,0.0,0.0,81,0.00,,---,0.00,VWS V14.01,2014-09-30 08:12:00,
2014-09-30 01:22:00,51.2,45.6,29.93,SSW,206,0.0,0.0,81,0.00,,---,0.00,VWS V14.01,2014-09-30 08:22:00,
2014-09-30 01:32:00,51.1,45.5,29.93,SSW,206,0.0,0.0,81,0.00,,---,0.00,VWS V14.01,2014-09-30 08:32:00,
2014-09-30 01:42:00,50.7,45.1,29.93,SSW,206,0.0,1.0,81,0.00,,---,0.00,VWS V14.01,2014-09-30 08:42:00,
2014-09-30 01:52:00,50.2,44.9,29.93,SSW,205,0.0,1.0,82,0.00,,---,0.00,VWS V14.01,2014-09-30 08:52:00,
2014-09-30 02:02:00,49.8,44.5,29.93,SSW,207,0.0,1.0,82,0.00,,---,0.00,VWS V14.01,2014-09-30 09:02:00,
2014-09-30 02:12:00,49.5,44.6,29.93,North,360,0.0,1.0,83,0.00,,---,0.00,VWS V14.01,2014-09-30 09:12:00,
2014-09-30 02:22:00,49.2,44.3,29.94,SSW,206,0.0,1.0,83,0.00,,---,0.00,VWS V14.01,2014-09-30 09:22:00,
2014-09-30 02:32:00,48.8,43.9,29.94,SSW,205,0.0,1.0,83,0.00,,---,0.00,VWS V14.01,2014-09-30 09:32:00,
2014-09-30 02:42:00,48.5,43.9,29.94,North,360,0.0,1.0,84,0.00,,---,0.00,VWS V14.01,2014-09-30 09:42:00,
2014-09-30 02:52:00,48.2,43.6,29.94,SSW,206,0.0,0.0,84,0.00,,---,0.00,VWS V14.01,2014-09-30 09:52:00,
2014-09-30 03:02:00,47.8,43.2,29.95,SSW,205,0.0,1.0,84,0.00,,---,0.00,VWS V14.01,2014-09-30 10:02:00,
2014-09-30 03:12:00,47.6,43.3,29.95,SSW,205,0.0,1.0,85,0.00,,---,0.00,VWS V14.01,2014-09-30 10:12:00,
2014-09-30 03:22:00,47.6,43.3,29.94,SSW,205,0.0,1.0,85,0.00,,---,0.00,VWS V14.01,2014-09-30 10:22:00,
2014-09-30 03:32:00,47.8,43.8,29.94,SSW,206,0.0,1.0,86,0.00,,---,0.00,VWS V14.01,2014-09-30 10:32:00,
2014-09-30 03:42:00,48.1,44.1,29.94,SSW,205,0.0,1.0,86,0.00,,---,0.00,VWS V14.01,2014-09-30 10:42:00,
2014-09-30 03:52:00,48.4,44.4,29.94,SSW,206,0.0,0.0,86,0.00,,---,0.00,VWS V14.01,2014-09-30 10:52:00,
2014-09-30 04:02:00,48.7,44.7,29.94,SSW,207,0.0,0.0,86,0.00,,---,0.00,VWS V14.01,2014-09-30 11:02:00,
2014-09-30 04:12:00,48.9,44.6,29.93,SSW,204,0.0,0.0,85,0.00,,---,0.00,VWS V14.01,2014-09-30 11:12:00,
2014-09-30 04:22:00,49.0,44.7,29.93,SSW,206,0.0,0.0,85,0.00,,---,0.00,VWS V14.01,2014-09-30 11:22:00,
2014-09-30 04:32:00,48.9,44.6,29.93,SSW,207,0.0,0.0,85,0.00,,---,0.00,VWS V14.01,2014-09-30 11:32:00,
2014-09-30 04:42:00,48.7,44.4,29.93,SSW,207,0.0,1.0,85,0.00,,---,0.00,VWS V14.01,2014-09-30 11:42:00,
2014-09-30 04:52:00,48.5,44.5,29.93,SSW,206,0.0,1.0,86,0.00,,---,0.00,VWS V14.01,2014-09-30 11:52:00,
2014-09-30 05:02:00,48.2,44.2,29.95,North,360,0.0,1.0,86,0.00,,---,0.00,VWS V14.01,2014-09-30 12:02:00,
2014-09-30 05:12:00,47.8,43.8,29.95,SSW,206,0.0,1.0,86,0.00,,---,0.00,VWS V14.01,2014-09-30 12:12:00,
2014-09-30 05:22:00,47.7,44.0,29.95,SSW,206,0.0,1.0,87,0.00,,---,0.00,VWS V14.01,2014-09-30 12:22:00,
2014-09-30 05:32:00,47.7,44.0,29.95,North,360,0.0,1.0,87,0.00,,---,0.00,VWS V14.01,2014-09-30 12:32:00,
2014-09-30 05:42:00,47.7,44.0,29.95,SSW,205,0.0,1.0,87,0.00,,---,0.00,VWS V14.01,2014-09-30 12:42:00,
2014-09-30 05:52:00,47.8,44.1,29.95,SSW,205,0.0,1.0,87,0.00,,---,0.00,VWS V14.01,2014-09-30 12:52:00,
2014-09-30 06:02:00,47.9,44.2,29.96,SSW,205,0.0,0.0,87,0.00,,---,0.00,VWS V14.01,2014-09-30 13:02:00,
2014-09-30 06:12:00,47.8,44.1,29.97,SSW,205,0.0,0.0,87,0.00,,---,0.00,VWS V14.01,2014-09-30 13:12:00,
2014-09-30 06:22:00,47.6,43.9,29.97,SSW,205,0.0,0.0,87,0.00,,---,0.00,VWS V14.01,2014-09-30 13:22:00,
2014-09-30 06:32:00,47.4,43.4,29.97,SSW,204,0.0,0.0,86,0.00,,---,0.00,VWS V14.01,2014-09-30 13:32:00,
2014-09-30 06:42:00,47.2,43.5,29.97,North,360,0.0,0.0,87,0.00,,---,0.00,VWS V14.01,2014-09-30 13:42:00,
2014-09-30 06:52:00,47.1,43.4,29.97,North,360,0.0,0.0,87,0.00,,---,0.00,VWS V14.01,2014-09-30 13:52:00,
2014-09-30 07:02:00,46.7,43.0,30.00,SSW,205,0.0,1.0,87,0.00,,---,0.00,VWS V14.01,2014-09-30 14:02:00,
2014-09-30 07:12:00,46.4,42.8,30.00,SSW,206,0.0,0.0,87,0.00,,---,0.00,VWS V14.01,2014-09-30 14:12:00,
2014-09-30 07:22:00,46.2,42.5,30.00,SSW,206,0.0,1.0,87,0.00,,---,0.00,VWS V14.01,2014-09-30 14:22:00,
2014-09-30 07:32:00,46.0,42.3,30.00,SSW,205,0.0,0.0,87,0.00,,---,0.00,VWS V14.01,2014-09-30 14:32:00,
2014-09-30 07:42:00,45.8,42.2,30.01,North,360,0.0,0.0,87,0.00,,---,0.00,VWS V14.01,2014-09-30 14:42:00,
2014-09-30 07:52:00,45.7,42.4,30.01,SSW,206,0.0,0.0,88,0.00,,---,0.00,VWS V14.01,2014-09-30 14:52:00,
2014-09-30 08:02:00,45.7,42.4,30.02,SSW,206,0.0,0.0,88,0.00,,---,0.00,VWS V14.01,2014-09-30 15:02:00,
2014-09-30 08:12:00,45.8,42.5,30.03,SSW,205,0.0,0.0,88,0.00,,---,0.00,VWS V14.01,2014-09-30 15:12:00,
2014-09-30 08:22:00,46.0,42.7,30.03,North,360,0.0,0.0,88,0.00,,---,0.00,VWS V14.01,2014-09-30 15:22:00,
2014-09-30 08:32:00,46.2,42.8,30.03,SSW,206,0.0,0.0,88,0.00,,---,0.00,VWS V14.01,2014-09-30 15:32:00,
2014-09-30 08:42:00,46.5,43.1,30.03,SSW,206,0.0,0.0,88,0.00,,---,0.00,VWS V14.01,2014-09-30 15:42:00,
2014-09-30 08:52:00,46.8,43.4,30.02,SSW,205,0.0,0.0,88,0.00,,---,0.00,VWS V14.01,2014-09-30 15:52:00,
2014-09-30 09:02:00,47.4,44.3,30.02,SSW,206,0.0,0.0,89,0.00,,---,0.00,VWS V14.01,2014-09-30 16:02:00,
2014-09-30 09:12:00,48.5,45.4,30.02,SSW,199,0.0,0.0,89,0.00,,---,0.00,VWS V14.01,2014-09-30 16:12:00,
2014-09-30 09:22:00,49.9,45.9,30.01,SSW,199,0.0,0.0,86,0.00,,---,0.00,VWS V14.01,2014-09-30 16:22:00,
2014-09-30 09:32:00,50.5,46.2,30.01,SSW,198,0.0,0.0,85,0.00,,---,0.00,VWS V14.01,2014-09-30 16:32:00,
2014-09-30 09:42:00,51.2,46.5,30.01,SSW,198,0.0,1.0,84,0.00,,---,0.00,VWS V14.01,2014-09-30 16:42:00,
2014-09-30 09:52:00,51.7,46.7,30.00,SSW,199,0.0,1.0,83,0.00,,---,0.00,VWS V14.01,2014-09-30 16:52:00,
2014-09-30 10:02:00,52.1,46.8,30.01,SSW,198,0.0,0.0,82,0.00,,---,0.00,VWS V14.01,2014-09-30 17:02:00,
2014-09-30 10:12:00,52.7,46.7,30.00,SSW,199,0.0,0.0,80,0.00,,---,0.00,VWS V14.01,2014-09-30 17:12:00,
2014-09-30 10:22:00,53.4,47.4,30.00,North,360,0.0,0.0,80,0.00,,---,0.00,VWS V14.01,2014-09-30 17:22:00,
2014-09-30 10:32:00,53.8,47.5,30.00,SSW,198,0.0,0.0,79,0.00,,---,0.00,VWS V14.01,2014-09-30 17:32:00,
2014-09-30 10:42:00,54.3,46.9,29.99,SSW,197,0.0,0.0,76,0.00,,---,0.00,VWS V14.01,2014-09-30 17:42:00,
2014-09-30 10:52:00,55.0,46.9,29.99,SSW,200,0.0,0.0,74,0.00,,---,0.00,VWS V14.01,2014-09-30 17:52:00,
2014-09-30 11:02:00,55.5,45.5,29.99,SSW,196,0.0,2.0,69,0.00,,---,0.00,VWS V14.01,2014-09-30 18:02:00,
2014-09-30 11:12:00,56.2,46.2,29.98,SSW,199,0.0,0.0,69,0.00,,---,0.00,VWS V14.01,2014-09-30 18:12:00,
2014-09-30 11:22:00,56.8,44.3,29.97,SSW,199,0.0,1.0,63,0.00,,---,0.00,VWS V14.01,2014-09-30 18:22:00,
2014-09-30 11:32:00,57.4,44.1,29.97,SSW,200,0.0,1.0,61,0.00,,---,0.00,VWS V14.01,2014-09-30 18:32:00,
2014-09-30 11:42:00,57.8,44.5,29.97,SSW,198,0.0,1.0,61,0.00,,---,0.00,VWS V14.01,2014-09-30 18:42:00,
2014-09-30 11:52:00,58.1,44.3,29.97,SSW,196,0.0,1.0,60,0.00,,---,0.00,VWS V14.01,2014-09-30 18:52:00,
2014-09-30 12:02:00,58.4,43.7,29.97,North,360,0.0,1.0,58,0.00,,---,0.00,VWS V14.01,2014-09-30 19:02:00,
2014-09-30 12:12:00,59.0,44.3,29.96,SSW,196,0.0,2.0,58,0.00,,---,0.00,VWS V14.01,2014-09-30 19:12:00,
2014-09-30 12:22:00,59.2,43.5,29.96,SSW,195,0.0,2.0,56,0.00,,---,0.00,VWS V14.01,2014-09-30 19:22:00,
2014-09-30 12:32:00,59.8,43.6,29.96,SSW,192,0.0,3.0,55,0.00,,---,0.00,VWS V14.01,2014-09-30 19:32:00,
2014-09-30 12:42:00,60.4,43.7,29.95,ENE,74,0.0,2.0,54,0.00,,---,0.00,VWS V14.01,2014-09-30 19:42:00,
2014-09-30 12:52:00,60.8,43.1,29.94,ENE,65,0.0,2.0,52,0.00,,---,0.00,VWS V14.01,2014-09-30 19:52:00,
2014-09-30 13:02:00,61.1,43.4,29.95,ENE,65,0.0,2.0,52,0.00,,---,0.00,VWS V14.01,2014-09-30 20:02:00,
2014-09-30 13:12:00,61.5,41.7,29.94,ENE,64,0.0,1.0,48,0.00,,---,0.00,VWS V14.01,2014-09-30 20:12:00,
2014-09-30 13:22:00,61.5,41.1,29.93,ENE,65,0.0,1.0,47,0.00,,---,0.00,VWS V14.01,2014-09-30 20:22:00,
2014-09-30 13:32:00,61.8,40.8,29.93,ENE,64,0.0,2.0,46,0.00,,---,0.00,VWS V14.01,2014-09-30 20:32:00,
2014-09-30 13:42:00,62.6,42.1,29.92,ENE,65,0.0,2.0,47,0.00,,---,0.00,VWS V14.01,2014-09-30 20:42:00,
2014-09-30 13:52:00,63.1,41.4,29.92,ENE,65,0.0,2.0,45,0.00,,---,0.00,VWS V14.01,2014-09-30 20:52:00,
2014-09-30 14:02:00,63.3,41.6,29.92,ENE,64,0.0,2.0,45,0.00,,---,0.00,VWS V14.01,2014-09-30 21:02:00,
2014-09-30 14:12:00,63.5,41.2,29.91,ENE,64,0.0,1.0,44,0.00,,---,0.00,VWS V14.01,2014-09-30 21:12:00,
2014-09-30 14:22:00,63.5,41.8,29.90,ENE,65,0.0,2.0,45,0.00,,---,0.00,VWS V14.01,2014-09-30 21:22:00,
2014-09-30 14:32:00,63.9,43.3,29.90,ENE,63,0.0,2.0,47,0.00,,---,0.00,VWS V14.01,2014-09-30 21:32:00,
2014-09-30 14:42:00,64.2,41.8,29.90,ENE,64,0.0,1.0,44,0.00,,---,0.00,VWS V14.01,2014-09-30 21:42:00,
2014-09-30 14:52:00,64.0,41.7,29.89,ENE,65,0.0,1.0,44,0.00,,---,0.00,VWS V14.01,2014-09-30 21:52:00,
2014-09-30 15:02:00,64.0,42.3,29.88,ENE,64,0.0,1.0,45,0.00,,---,0.00,VWS V14.01,2014-09-30 22:02:00,
2014-09-30 15:12:00,64.0,41.7,29.88,ENE,63,0.0,1.0,44,0.00,,---,0.00,VWS V14.01,2014-09-30 22:12:00,
2014-09-30 15:22:00,64.4,42.6,29.88,ENE,64,0.0,1.0,45,0.00,,---,0.00,VWS V14.01,2014-09-30 22:22:00,
2014-09-30 15:32:00,64.7,42.3,29.87,ENE,65,0.0,1.0,44,0.00,,---,0.00,VWS V14.01,2014-09-30 22:32:00,
2014-09-30 15:42:00,64.5,42.7,29.86,ENE,64,0.0,0.0,45,0.00,,---,0.00,VWS V14.01,2014-09-30 22:42:00,
2014-09-30 15:52:00,64.5,43.3,29.87,ENE,64,0.0,0.0,46,0.00,,---,0.00,VWS V14.01,2014-09-30 22:52:00,
2014-09-30 16:02:00,64.9,43.7,29.87,ENE,64,0.0,0.0,46,0.00,,---,0.00,VWS V14.01,2014-09-30 23:02:00,
2014-09-30 16:12:00,65.2,43.9,29.87,ENE,65,0.0,0.0,46,0.00,,---,0.00,VWS V14.01,2014-09-30 23:12:00,
2014-09-30 16:22:00,65.1,43.8,29.87,NE,42,0.0,2.0,46,0.00,,---,0.00,VWS V14.01,2014-09-30 23:22:00,
2014-09-30 16:32:00,65.0,44.3,29.87,NE,42,0.0,2.0,47,0.00,,---,0.00,VWS V14.01,2014-09-30 23:32:00,
2014-09-30 16:42:00,64.6,46.1,29.87,NE,42,0.0,2.0,51,0.00,,---,0.00,VWS V14.01,2014-09-30 23:42:00,
2014-09-30 16:52:00,64.3,45.3,29.87,North,360,0.0,2.0,50,0.00,,---,0.00,VWS V14.01,2014-09-30 23:52:00,
2014-09-30 17:02:00,64.0,42.8,29.88,North,5,0.0,1.0,46,0.00,,---,0.00,VWS V14.01,2014-10-01 00:02:00,
2014-09-30 17:12:00,64.5,41.5,29.87,North,360,0.0,2.0,43,0.00,,---,0.00,VWS V14.01,2014-10-01 00:12:00,
2014-09-30 17:22:00,64.7,42.3,29.88,NNE,30,3.0,5.0,44,0.00,,---,0.00,VWS V14.01,2014-10-01 00:22:00,
2014-09-30 17:32:00,64.4,42.6,29.88,NE,38,2.0,4.0,45,0.00,,---,0.00,VWS V14.01,2014-10-01 00:32:00,
2014-09-30 17:42:00,64.2,41.8,29.88,NE,34,1.0,5.0,44,0.00,,---,0.00,VWS V14.01,2014-10-01 00:42:00,
2014-09-30 17:52:00,63.9,43.3,29.89,NE,37,2.0,5.0,47,0.00,,---,0.00,VWS V14.01,2014-10-01 00:52:00,
2014-09-30 18:02:00,63.8,41.5,29.90,NE,36,5.0,5.0,44,0.00,,---,0.00,VWS V14.01,2014-10-01 01:02:00,
2014-09-30 18:12:00,63.2,41.0,29.90,NE,35,3.0,5.0,44,0.00,,---,0.00,VWS V14.01,2014-10-01 01:12:00,
2014-09-30 18:22:00,62.9,41.3,29.90,NE,37,6.0,6.0,45,0.00,,---,0.00,VWS V14.01,2014-10-01 01:22:00,
2014-09-30 18:32:00,62.2,40.6,29.92,NNE,33,5.0,6.0,45,0.00,,---,0.00,VWS V14.01,2014-10-01 01:32:00,
2014-09-30 18:42:00,61.6,38.3,29.93,NE,34,3.0,5.0,42,0.00,,---,0.00,VWS V14.01,2014-10-01 01:42:00,
2014-09-30 18:52:00,61.0,35.9,29.93,NE,36,4.0,6.0,39,0.00,,---,0.00,VWS V14.01,2014-10-01 01:52:00,
2014-09-30 19:02:00,60.5,34.8,29.94,NE,40,4.0,7.0,38,0.00,,---,0.00,VWS V14.01,2014-10-01 02:02:00,
2014-09-30 19:12:00,60.2,35.2,29.95,NE,36,3.0,6.0,39,0.00,,---,0.00,VWS V14.01,2014-10-01 02:12:00,
2014-09-30 19:22:00,59.7,34.7,29.95,NE,38,2.0,5.0,39,0.00,,---,0.00,VWS V14.01,2014-10-01 02:22:00,
2014-09-30 19:32:00,59.2,33.6,29.96,NE,40,2.0,4.0,38,0.00,,---,0.00,VWS V14.01,2014-10-01 02:32:00,
2014-09-30 19:42:00,59.0,34.1,29.96,NE,42,2.0,4.0,39,0.00,,---,0.00,VWS V14.01,2014-10-01 02:42:00,
2014-09-30 19:52:00,58.4,32.9,29.97,NE,40,2.0,4.0,38,0.00,,---,0.00,VWS V14.01,2014-10-01 02:52:00,
2014-09-30 20:02:00,58.2,35.2,29.98,NE,40,0.0,4.0,42,0.00,,---,0.00,VWS V14.01,2014-10-01 03:02:00,
2014-09-30 20:13:00,57.7,34.8,29.98,NE,40,0.0,2.0,42,0.00,,---,0.00,VWS V14.01,2014-10-01 03:13:00,
2014-09-30 20:22:00,56.4,34.2,29.99,NE,40,0.0,1.0,43,0.00,,---,0.00,VWS V14.01,2014-10-01 03:22:00,
2014-09-30 20:32:00,54.7,32.7,30.00,NE,40,0.0,0.0,43,0.00,,---,0.00,VWS V14.01,2014-10-01 03:32:00,
2014-09-30 20:42:00,53.6,32.8,30.01,NE,46,0.0,1.0,45,0.00,,---,0.00,VWS V14.01,2014-10-01 03:42:00,
2014-09-30 20:52:00,52.8,33.2,30.01,NE,47,0.0,0.0,47,0.00,,---,0.00,VWS V14.01,2014-10-01 03:52:00,
2014-09-30 21:02:00,52.1,32.0,30.03,NE,46,0.0,0.0,46,0.00,,---,0.00,VWS V14.01,2014-10-01 04:02:00,
2014-09-30 21:12:00,51.4,32.4,30.01,NE,46,0.0,0.0,48,0.00,,---,0.00,VWS V14.01,2014-10-01 04:12:00,
2014-09-30 21:22:00,50.9,32.4,30.02,NE,47,0.0,0.0,49,0.00,,---,0.00,VWS V14.01,2014-10-01 04:22:00,
2014-09-30 21:32:00,50.4,32.0,30.02,NE,46,0.0,0.0,49,0.00,,---,0.00,VWS V14.01,2014-10-01 04:32:00,
2014-09-30 21:42:00,50.0,31.6,30.02,NE,47,0.0,1.0,49,0.00,,---,0.00,VWS V14.01,2014-10-01 04:42:00,
2014-09-30 21:52:00,49.6,31.2,30.03,SSE,167,0.0,0.0,49,0.00,,---,0.00,VWS V14.01,2014-10-01 04:52:00,
2014-09-30 22:02:00,49.4,32.0,30.04,South,187,0.0,1.0,51,0.00,,---,0.00,VWS V14.01,2014-10-01 05:02:00,
2014-09-30 22:12:00,49.3,32.4,30.02,NE,56,0.0,1.0,52,0.00,,---,0.00,VWS V14.01,2014-10-01 05:12:00,
2014-09-30 22:22:00,50.8,33.3,30.01,NE,41,0.0,3.0,51,0.00,,---,0.00,VWS V14.01,2014-10-01 05:22:00,